sensor_id;sensor_type;location;lat;lon;timestamp;pressure;altitude;pressure_sealevel;temperature;humidity
11682;BME280;5897;42.640;23.310;2023-08-30T00:01:54;93042.63;;;22.46;97.11
11682;BME280;5897;42.640;23.310;2023-08-30T00:04:21;93034.38;;;22.46;98.37
11682;BME280;5897;42.640;23.310;2023-08-30T00:06:47;93040.25;;;22.37;97.27
11682;BME280;5897;42.640;23.310;2023-08-30T00:09:16;93049.31;;;22.32;93.77
11682;BME280;5897;42.640;23.310;2023-08-30T00:11:42;93055.34;;;22.31;92.19
11682;BME280;5897;42.640;23.310;2023-08-30T00:14:09;93048.19;;;22.22;91.16
11682;BME280;5897;42.640;23.310;2023-08-30T00:16:36;93056.91;;;22.26;90.36
11682;BME280;5897;42.640;23.310;2023-08-30T00:19:04;93049.03;;;22.17;87.11
11682;BME280;5897;42.640;23.310;2023-08-30T00:21:31;93047.78;;;22.00;86.39
11682;BME280;5897;42.640;23.310;2023-08-30T00:23:58;93050.44;;;21.87;87.78
11682;BME280;5897;42.640;23.310;2023-08-30T00:26:26;93041.00;;;22.01;85.70
11682;BME280;5897;42.640;23.310;2023-08-30T00:28:53;93045.69;;;21.87;84.33
11682;BME280;5897;42.640;23.310;2023-08-30T00:31:19;93055.88;;;21.92;81.50
11682;BME280;5897;42.640;23.310;2023-08-30T00:33:47;93048.59;;;21.95;79.46
11682;BME280;5897;42.640;23.310;2023-08-30T00:36:14;93037.88;;;21.73;81.63
11682;BME280;5897;42.640;23.310;2023-08-30T00:38:42;93030.19;;;21.66;81.76
11682;BME280;5897;42.640;23.310;2023-08-30T00:41:09;93037.75;;;21.60;81.42
11682;BME280;5897;42.640;23.310;2023-08-30T00:43:37;93039.19;;;21.42;82.42
11682;BME280;5897;42.640;23.310;2023-08-30T00:46:04;93044.47;;;21.40;80.93
11682;BME280;5897;42.640;23.310;2023-08-30T00:48:31;93044.00;;;21.36;80.91
11682;BME280;5897;42.640;23.310;2023-08-30T00:50:57;93057.97;;;21.38;80.76
11682;BME280;5897;42.640;23.310;2023-08-30T00:53:24;93067.44;;;21.19;83.02
11682;BME280;5897;42.640;23.310;2023-08-30T00:55:51;93061.34;;;21.02;86.05
11682;BME280;5897;42.640;23.310;2023-08-30T00:58:18;93063.22;;;21.12;83.64
11682;BME280;5897;42.640;23.310;2023-08-30T01:00:46;93054.59;;;21.03;81.93
11682;BME280;5897;42.640;23.310;2023-08-30T01:03:13;93043.81;;;21.05;80.62
11682;BME280;5897;42.640;23.310;2023-08-30T01:05:40;93047.88;;;20.98;80.06
11682;BME280;5897;42.640;23.310;2023-08-30T01:08:07;93055.84;;;21.02;78.66
11682;BME280;5897;42.640;23.310;2023-08-30T01:10:41;93046.47;;;20.86;78.76
11682;BME280;5897;42.640;23.310;2023-08-30T01:13:14;93055.59;;;21.00;76.62
11682;BME280;5897;42.640;23.310;2023-08-30T01:15:47;93055.31;;;21.03;76.48
11682;BME280;5897;42.640;23.310;2023-08-30T01:18:17;93030.19;;;20.94;77.38
11682;BME280;5897;42.640;23.310;2023-08-30T01:20:45;93054.78;;;21.10;78.48
11682;BME280;5897;42.640;23.310;2023-08-30T01:23:20;93065.00;;;21.10;78.65
11682;BME280;5897;42.640;23.310;2023-08-30T01:25:55;93072.44;;;21.15;78.55
11682;BME280;5897;42.640;23.310;2023-08-30T01:28:26;93061.00;;;21.11;79.74
11682;BME280;5897;42.640;23.310;2023-08-30T01:30:56;93086.88;;;21.21;81.00
11682;BME280;5897;42.640;23.310;2023-08-30T01:33:24;93066.28;;;21.33;82.17
11682;BME280;5897;42.640;23.310;2023-08-30T01:35:53;93066.44;;;21.40;82.64
11682;BME280;5897;42.640;23.310;2023-08-30T01:38:21;93066.38;;;21.46;82.02
11682;BME280;5897;42.640;23.310;2023-08-30T01:40:49;93075.47;;;21.59;81.37
11682;BME280;5897;42.640;23.310;2023-08-30T01:43:17;93076.91;;;21.66;80.64
11682;BME280;5897;42.640;23.310;2023-08-30T01:45:46;93056.91;;;21.65;80.24
11682;BME280;5897;42.640;23.310;2023-08-30T01:48:15;93068.19;;;21.86;79.88
11682;BME280;5897;42.640;23.310;2023-08-30T01:50:43;93059.59;;;21.95;79.53
11682;BME280;5897;42.640;23.310;2023-08-30T01:53:12;93060.63;;;21.92;79.47
11682;BME280;5897;42.640;23.310;2023-08-30T01:55:39;93080.81;;;21.76;77.90
11682;BME280;5897;42.640;23.310;2023-08-30T01:58:07;93070.38;;;21.69;79.23
11682;BME280;5897;42.640;23.310;2023-08-30T02:00:35;93071.06;;;21.75;79.62
11682;BME280;5897;42.640;23.310;2023-08-30T02:03:09;93069.69;;;21.87;80.24
11682;BME280;5897;42.640;23.310;2023-08-30T02:05:37;93065.44;;;21.86;79.91
11682;BME280;5897;42.640;23.310;2023-08-30T02:08:11;93052.38;;;21.73;79.44
11682;BME280;5897;42.640;23.310;2023-08-30T02:10:41;93063.88;;;21.72;80.51
11682;BME280;5897;42.640;23.310;2023-08-30T02:13:12;93061.97;;;21.61;81.86
11682;BME280;5897;42.640;23.310;2023-08-30T02:15:41;93060.38;;;21.47;82.39
11682;BME280;5897;42.640;23.310;2023-08-30T02:18:09;93060.31;;;21.53;82.71
11682;BME280;5897;42.640;23.310;2023-08-30T02:20:36;93058.19;;;21.64;82.04
11682;BME280;5897;42.640;23.310;2023-08-30T02:23:03;93026.75;;;21.60;81.29
11682;BME280;5897;42.640;23.310;2023-08-30T02:25:30;93047.00;;;21.81;80.77
11682;BME280;5897;42.640;23.310;2023-08-30T02:27:57;93050.50;;;21.81;78.13
11682;BME280;5897;42.640;23.310;2023-08-30T02:30:24;93057.44;;;21.88;77.48
11682;BME280;5897;42.640;23.310;2023-08-30T02:32:50;93058.63;;;21.92;77.67
11682;BME280;5897;42.640;23.310;2023-08-30T02:35:19;93049.78;;;21.99;77.63
11682;BME280;5897;42.640;23.310;2023-08-30T02:37:45;93054.75;;;22.01;78.11
11682;BME280;5897;42.640;23.310;2023-08-30T02:40:12;93059.00;;;22.02;77.96
11682;BME280;5897;42.640;23.310;2023-08-30T02:42:39;93068.34;;;21.93;78.38
11682;BME280;5897;42.640;23.310;2023-08-30T02:45:07;93070.59;;;21.95;78.49
11682;BME280;5897;42.640;23.310;2023-08-30T02:47:33;93053.19;;;21.87;78.12
11682;BME280;5897;42.640;23.310;2023-08-30T02:50:03;93055.66;;;21.90;77.45
11682;BME280;5897;42.640;23.310;2023-08-30T02:52:31;93050.44;;;21.87;76.81
11682;BME280;5897;42.640;23.310;2023-08-30T02:54:58;93046.66;;;21.90;76.60
11682;BME280;5897;42.640;23.310;2023-08-30T02:57:24;93032.19;;;21.65;77.23
11682;BME280;5897;42.640;23.310;2023-08-30T02:59:53;93036.16;;;21.46;77.93
11682;BME280;5897;42.640;23.310;2023-08-30T03:02:20;93043.38;;;21.25;79.63
11682;BME280;5897;42.640;23.310;2023-08-30T03:04:47;93040.56;;;21.06;77.39
11682;BME280;5897;42.640;23.310;2023-08-30T03:07:13;93046.75;;;21.12;78.14
11682;BME280;5897;42.640;23.310;2023-08-30T03:09:42;93044.41;;;21.22;77.80
11682;BME280;5897;42.640;23.310;2023-08-30T03:12:08;93041.31;;;21.31;77.31
11682;BME280;5897;42.640;23.310;2023-08-30T03:14:35;93047.94;;;21.41;76.87
11682;BME280;5897;42.640;23.310;2023-08-30T03:17:02;93052.94;;;21.42;76.40
11682;BME280;5897;42.640;23.310;2023-08-30T03:19:29;93056.88;;;21.47;76.28
11682;BME280;5897;42.640;23.310;2023-08-30T03:21:55;93043.28;;;21.54;76.21
11682;BME280;5897;42.640;23.310;2023-08-30T03:24:22;93051.50;;;21.60;76.42
11682;BME280;5897;42.640;23.310;2023-08-30T03:26:50;93051.69;;;21.67;75.09
11682;BME280;5897;42.640;23.310;2023-08-30T03:29:17;93047.47;;;21.61;73.17
11682;BME280;5897;42.640;23.310;2023-08-30T03:31:44;93044.22;;;21.62;72.52
11682;BME280;5897;42.640;23.310;2023-08-30T03:34:10;93045.91;;;21.71;71.09
11682;BME280;5897;42.640;23.310;2023-08-30T03:36:38;93039.13;;;21.72;69.87
11682;BME280;5897;42.640;23.310;2023-08-30T03:39:04;93024.94;;;21.68;69.78
11682;BME280;5897;42.640;23.310;2023-08-30T03:41:31;93035.41;;;21.69;70.22
11682;BME280;5897;42.640;23.310;2023-08-30T03:44:00;93033.28;;;21.57;70.99
11682;BME280;5897;42.640;23.310;2023-08-30T03:46:26;93030.59;;;21.51;71.37
11682;BME280;5897;42.640;23.310;2023-08-30T03:48:53;93034.97;;;21.41;71.05
11682;BME280;5897;42.640;23.310;2023-08-30T03:51:20;93039.94;;;21.43;71.18
11682;BME280;5897;42.640;23.310;2023-08-30T03:53:46;93037.19;;;21.43;70.47
11682;BME280;5897;42.640;23.310;2023-08-30T03:56:13;93042.63;;;21.00;72.15
11682;BME280;5897;42.640;23.310;2023-08-30T03:58:40;93047.97;;;20.87;74.07
11682;BME280;5897;42.640;23.310;2023-08-30T04:01:08;93057.72;;;20.83;74.54
11682;BME280;5897;42.640;23.310;2023-08-30T04:03:35;93067.44;;;20.89;74.61
11682;BME280;5897;42.640;23.310;2023-08-30T04:06:01;93066.38;;;20.98;74.21
11682;BME280;5897;42.640;23.310;2023-08-30T04:08:28;93067.19;;;21.17;73.48
11682;BME280;5897;42.640;23.310;2023-08-30T04:10:55;93058.31;;;21.29;73.54
11682;BME280;5897;42.640;23.310;2023-08-30T04:13:24;93049.88;;;21.46;73.13
11682;BME280;5897;42.640;23.310;2023-08-30T04:15:51;93050.97;;;21.61;72.42
11682;BME280;5897;42.640;23.310;2023-08-30T04:18:19;93059.41;;;21.69;72.36
11682;BME280;5897;42.640;23.310;2023-08-30T04:20:47;93067.81;;;21.76;72.17
11682;BME280;5897;42.640;23.310;2023-08-30T04:23:14;93083.38;;;21.92;71.79
11682;BME280;5897;42.640;23.310;2023-08-30T04:25:41;93081.75;;;22.02;72.45
11682;BME280;5897;42.640;23.310;2023-08-30T04:28:08;93083.81;;;22.15;70.21
11682;BME280;5897;42.640;23.310;2023-08-30T04:30:36;93092.31;;;22.17;71.49
11682;BME280;5897;42.640;23.310;2023-08-30T04:33:03;93101.25;;;22.23;71.83
11682;BME280;5897;42.640;23.310;2023-08-30T04:35:32;93103.38;;;22.30;69.71
11682;BME280;5897;42.640;23.310;2023-08-30T04:37:59;93107.19;;;22.27;71.15
11682;BME280;5897;42.640;23.310;2023-08-30T04:40:26;93109.84;;;22.32;72.71
11682;BME280;5897;42.640;23.310;2023-08-30T04:42:53;93112.25;;;22.41;73.25
11682;BME280;5897;42.640;23.310;2023-08-30T04:45:21;93116.88;;;22.52;73.66
11682;BME280;5897;42.640;23.310;2023-08-30T04:47:47;93112.25;;;22.23;71.44
11682;BME280;5897;42.640;23.310;2023-08-30T04:50:14;93110.75;;;22.22;72.32
11682;BME280;5897;42.640;23.310;2023-08-30T04:52:43;93116.09;;;22.14;71.40
11682;BME280;5897;42.640;23.310;2023-08-30T04:55:10;93111.63;;;22.11;71.57
11682;BME280;5897;42.640;23.310;2023-08-30T04:57:37;93116.53;;;22.00;71.03
11682;BME280;5897;42.640;23.310;2023-08-30T05:00:06;93115.81;;;22.18;66.06
11682;BME280;5897;42.640;23.310;2023-08-30T05:02:33;93111.13;;;22.13;67.43
11682;BME280;5897;42.640;23.310;2023-08-30T05:05:00;93116.16;;;22.09;67.16
11682;BME280;5897;42.640;23.310;2023-08-30T05:07:29;93115.72;;;22.05;64.02
11682;BME280;5897;42.640;23.310;2023-08-30T05:09:57;93108.03;;;21.98;63.94
11682;BME280;5897;42.640;23.310;2023-08-30T05:12:24;93111.31;;;21.96;65.10
11682;BME280;5897;42.640;23.310;2023-08-30T05:14:51;93115.28;;;22.01;65.08
11682;BME280;5897;42.640;23.310;2023-08-30T05:17:18;93104.44;;;22.08;65.28
11682;BME280;5897;42.640;23.310;2023-08-30T05:19:44;93108.00;;;22.22;64.55
11682;BME280;5897;42.640;23.310;2023-08-30T05:22:11;93106.00;;;22.41;64.76
11682;BME280;5897;42.640;23.310;2023-08-30T05:24:38;93112.13;;;22.52;64.74
11682;BME280;5897;42.640;23.310;2023-08-30T05:27:06;93117.75;;;22.60;64.54
11682;BME280;5897;42.640;23.310;2023-08-30T05:29:33;93128.34;;;22.56;64.79
11682;BME280;5897;42.640;23.310;2023-08-30T05:32:00;93131.75;;;22.62;63.35
11682;BME280;5897;42.640;23.310;2023-08-30T05:34:27;93135.38;;;22.70;63.33
11682;BME280;5897;42.640;23.310;2023-08-30T05:36:53;93130.34;;;22.74;63.65
11682;BME280;5897;42.640;23.310;2023-08-30T05:39:20;93137.16;;;22.86;64.64
11682;BME280;5897;42.640;23.310;2023-08-30T05:41:47;93127.75;;;22.94;65.04
11682;BME280;5897;42.640;23.310;2023-08-30T05:44:15;93128.41;;;23.00;64.98
11682;BME280;5897;42.640;23.310;2023-08-30T05:46:56;93126.16;;;23.17;64.47
11682;BME280;5897;42.640;23.310;2023-08-30T05:49:23;93131.63;;;23.36;65.05
11682;BME280;5897;42.640;23.310;2023-08-30T05:51:49;93128.13;;;23.48;63.55
11682;BME280;5897;42.640;23.310;2023-08-30T05:54:16;93129.75;;;23.57;62.16
11682;BME280;5897;42.640;23.310;2023-08-30T05:56:43;93124.66;;;23.61;61.21
11682;BME280;5897;42.640;23.310;2023-08-30T05:59:10;93099.59;;;23.46;60.64
11682;BME280;5897;42.640;23.310;2023-08-30T06:01:36;93125.94;;;23.73;60.11
11682;BME280;5897;42.640;23.310;2023-08-30T06:04:05;93129.25;;;23.84;60.48
11682;BME280;5897;42.640;23.310;2023-08-30T06:06:32;93128.09;;;23.93;60.29
11682;BME280;5897;42.640;23.310;2023-08-30T06:08:59;93130.66;;;24.04;60.36
11682;BME280;5897;42.640;23.310;2023-08-30T06:11:25;93132.13;;;24.05;57.31
11682;BME280;5897;42.640;23.310;2023-08-30T06:13:52;93128.09;;;23.93;57.49
11682;BME280;5897;42.640;23.310;2023-08-30T06:16:20;93122.59;;;23.93;56.88
11682;BME280;5897;42.640;23.310;2023-08-30T06:18:47;93128.81;;;23.80;57.94
11682;BME280;5897;42.640;23.310;2023-08-30T06:21:15;93126.56;;;23.79;57.89
11682;BME280;5897;42.640;23.310;2023-08-30T06:23:41;93135.50;;;23.85;57.58
11682;BME280;5897;42.640;23.310;2023-08-30T06:26:08;93136.88;;;23.78;57.57
11682;BME280;5897;42.640;23.310;2023-08-30T06:28:35;93129.78;;;23.96;58.31
11682;BME280;5897;42.640;23.310;2023-08-30T06:31:02;93121.19;;;23.99;59.24
11682;BME280;5897;42.640;23.310;2023-08-30T06:33:28;93140.63;;;24.07;59.69
11682;BME280;5897;42.640;23.310;2023-08-30T06:35:55;93132.97;;;24.26;61.58
11682;BME280;5897;42.640;23.310;2023-08-30T06:38:23;93140.34;;;24.57;57.15
11682;BME280;5897;42.640;23.310;2023-08-30T06:40:50;93136.94;;;24.64;57.60
11682;BME280;5897;42.640;23.310;2023-08-30T06:43:17;93138.94;;;24.76;58.52
11682;BME280;5897;42.640;23.310;2023-08-30T06:45:44;93141.16;;;24.78;59.05
11682;BME280;5897;42.640;23.310;2023-08-30T06:48:11;93127.56;;;24.80;57.64
11682;BME280;5897;42.640;23.310;2023-08-30T06:50:38;93139.72;;;24.97;56.53
11682;BME280;5897;42.640;23.310;2023-08-30T06:53:05;93130.88;;;25.19;55.58
11682;BME280;5897;42.640;23.310;2023-08-30T06:55:33;93132.16;;;25.18;53.21
11682;BME280;5897;42.640;23.310;2023-08-30T06:58:01;93120.75;;;25.35;54.53
11682;BME280;5897;42.640;23.310;2023-08-30T07:00:28;93130.44;;;25.49;54.90
11682;BME280;5897;42.640;23.310;2023-08-30T07:02:55;93130.44;;;25.49;53.36
11682;BME280;5897;42.640;23.310;2023-08-30T07:05:22;93136.22;;;25.58;53.42
11682;BME280;5897;42.640;23.310;2023-08-30T07:07:49;93129.47;;;25.67;54.04
11682;BME280;5897;42.640;23.310;2023-08-30T07:10:16;93125.19;;;25.86;52.21
11682;BME280;5897;42.640;23.310;2023-08-30T07:12:44;93128.50;;;25.57;52.29
11682;BME280;5897;42.640;23.310;2023-08-30T07:15:14;93127.00;;;25.84;52.83
11682;BME280;5897;42.640;23.310;2023-08-30T07:17:42;93127.34;;;26.01;53.00
11682;BME280;5897;42.640;23.310;2023-08-30T07:20:09;93124.56;;;26.01;52.71
11682;BME280;5897;42.640;23.310;2023-08-30T07:22:36;93129.31;;;26.21;50.24
11682;BME280;5897;42.640;23.310;2023-08-30T07:25:04;93126.28;;;26.39;48.40
11682;BME280;5897;42.640;23.310;2023-08-30T07:27:31;93138.25;;;26.34;49.05
11682;BME280;5897;42.640;23.310;2023-08-30T07:29:59;93137.09;;;26.30;49.68
11682;BME280;5897;42.640;23.310;2023-08-30T07:32:26;93129.72;;;26.25;48.86
11682;BME280;5897;42.640;23.310;2023-08-30T07:34:53;93135.84;;;26.31;48.40
11682;BME280;5897;42.640;23.310;2023-08-30T07:37:21;93136.34;;;26.57;47.97
11682;BME280;5897;42.640;23.310;2023-08-30T07:39:48;93108.28;;;26.61;46.92
11682;BME280;5897;42.640;23.310;2023-08-30T07:42:14;93133.88;;;26.89;46.03
11682;BME280;5897;42.640;23.310;2023-08-30T07:44:43;93125.22;;;27.08;44.27
11682;BME280;5897;42.640;23.310;2023-08-30T07:47:12;93122.69;;;27.25;45.62
11682;BME280;5897;42.640;23.310;2023-08-30T07:49:39;93125.84;;;27.29;46.38
11682;BME280;5897;42.640;23.310;2023-08-30T07:52:06;93128.09;;;27.53;46.30
11682;BME280;5897;42.640;23.310;2023-08-30T07:54:37;93113.66;;;27.69;45.60
11682;BME280;5897;42.640;23.310;2023-08-30T07:57:04;93130.28;;;27.77;44.89
11682;BME280;5897;42.640;23.310;2023-08-30T07:59:32;93133.47;;;27.88;43.32
11682;BME280;5897;42.640;23.310;2023-08-30T08:01:59;93131.97;;;27.95;42.44
11682;BME280;5897;42.640;23.310;2023-08-30T08:04:27;93125.88;;;28.04;45.97
11682;BME280;5897;42.640;23.310;2023-08-30T08:06:54;93129.72;;;28.23;42.84
11682;BME280;5897;42.640;23.310;2023-08-30T08:09:21;93140.81;;;28.38;43.26
11682;BME280;5897;42.640;23.310;2023-08-30T08:11:48;93130.09;;;28.20;42.30
11682;BME280;5897;42.640;23.310;2023-08-30T08:14:15;93130.63;;;28.33;41.50
11682;BME280;5897;42.640;23.310;2023-08-30T08:16:42;93131.81;;;28.70;40.70
11682;BME280;5897;42.640;23.310;2023-08-30T08:19:11;93138.78;;;28.86;40.46
11682;BME280;5897;42.640;23.310;2023-08-30T08:21:40;93141.50;;;28.54;40.99
11682;BME280;5897;42.640;23.310;2023-08-30T08:24:07;93129.72;;;28.08;41.57
11682;BME280;5897;42.640;23.310;2023-08-30T08:26:34;93144.19;;;28.07;42.17
11682;BME280;5897;42.640;23.310;2023-08-30T08:29:00;93150.31;;;27.83;42.35
11682;BME280;5897;42.640;23.310;2023-08-30T08:31:27;93149.38;;;28.03;43.32
11682;BME280;5897;42.640;23.310;2023-08-30T08:34:07;93144.69;;;28.35;42.29
11682;BME280;5897;42.640;23.310;2023-08-30T08:36:34;93156.50;;;28.58;41.03
11682;BME280;5897;42.640;23.310;2023-08-30T08:39:02;93143.69;;;28.63;40.33
11682;BME280;5897;42.640;23.310;2023-08-30T08:41:35;93147.41;;;28.58;40.79
11682;BME280;5897;42.640;23.310;2023-08-30T08:44:05;93146.13;;;28.59;39.47
11682;BME280;5897;42.640;23.310;2023-08-30T08:46:32;93143.75;;;28.55;40.04
11682;BME280;5897;42.640;23.310;2023-08-30T08:49:02;93144.09;;;28.52;40.19
11682;BME280;5897;42.640;23.310;2023-08-30T08:51:32;93145.47;;;28.21;41.95
11682;BME280;5897;42.640;23.310;2023-08-30T08:54:03;93145.06;;;28.32;39.98
11682;BME280;5897;42.640;23.310;2023-08-30T08:56:31;93141.41;;;27.54;41.46
11682;BME280;5897;42.640;23.310;2023-08-30T08:58:59;93122.34;;;27.51;43.40
11682;BME280;5897;42.640;23.310;2023-08-30T09:01:26;93135.69;;;27.82;42.05
11682;BME280;5897;42.640;23.310;2023-08-30T09:03:53;93133.47;;;27.96;44.59
11682;BME280;5897;42.640;23.310;2023-08-30T09:06:21;93136.72;;;28.32;42.77
11682;BME280;5897;42.640;23.310;2023-08-30T09:08:47;93134.53;;;28.38;42.51
11682;BME280;5897;42.640;23.310;2023-08-30T09:11:16;93135.59;;;28.50;43.13
11682;BME280;5897;42.640;23.310;2023-08-30T09:13:44;93138.38;;;28.50;42.16
11682;BME280;5897;42.640;23.310;2023-08-30T09:16:13;93135.94;;;28.61;42.85
11682;BME280;5897;42.640;23.310;2023-08-30T09:18:41;93131.22;;;28.79;41.01
11682;BME280;5897;42.640;23.310;2023-08-30T09:21:08;93123.25;;;28.75;42.48
11682;BME280;5897;42.640;23.310;2023-08-30T09:23:35;93120.72;;;28.70;42.64
11682;BME280;5897;42.640;23.310;2023-08-30T09:26:02;93123.50;;;28.62;43.11
11682;BME280;5897;42.640;23.310;2023-08-30T09:28:30;93128.16;;;28.60;41.27
11682;BME280;5897;42.640;23.310;2023-08-30T09:30:58;93125.34;;;28.67;39.96
11682;BME280;5897;42.640;23.310;2023-08-30T09:33:35;93128.03;;;28.82;39.59
11682;BME280;5897;42.640;23.310;2023-08-30T09:36:01;93130.28;;;28.84;40.97
11682;BME280;5897;42.640;23.310;2023-08-30T09:38:28;93128.13;;;28.67;38.95
11682;BME280;5897;42.640;23.310;2023-08-30T09:41:03;93085.31;;;28.08;39.39
11682;BME280;5897;42.640;23.310;2023-08-30T09:43:32;93131.91;;;28.40;39.56
11682;BME280;5897;42.640;23.310;2023-08-30T09:46:03;93134.44;;;28.60;40.06
11682;BME280;5897;42.640;23.310;2023-08-30T09:48:31;93128.81;;;28.75;40.99
11682;BME280;5897;42.640;23.310;2023-08-30T09:50:59;93125.41;;;28.45;41.08
11682;BME280;5897;42.640;23.310;2023-08-30T09:53:28;93122.59;;;28.60;41.84
11682;BME280;5897;42.640;23.310;2023-08-30T09:55:56;93116.38;;;28.84;41.45
11682;BME280;5897;42.640;23.310;2023-08-30T09:58:25;93108.38;;;28.88;40.32
11682;BME280;5897;42.640;23.310;2023-08-30T10:00:55;93115.69;;;29.40;39.69
11682;BME280;5897;42.640;23.310;2023-08-30T10:03:23;93104.56;;;29.40;38.30
11682;BME280;5897;42.640;23.310;2023-08-30T10:05:49;93097.09;;;29.18;39.58
11682;BME280;5897;42.640;23.310;2023-08-30T10:08:17;93096.66;;;28.97;40.63
11682;BME280;5897;42.640;23.310;2023-08-30T10:10:45;93104.69;;;28.85;39.43
11682;BME280;5897;42.640;23.310;2023-08-30T10:13:13;93104.72;;;28.78;41.40
11682;BME280;5897;42.640;23.310;2023-08-30T10:15:43;93108.59;;;28.82;41.51
11682;BME280;5897;42.640;23.310;2023-08-30T10:18:15;93101.72;;;28.83;39.26
11682;BME280;5897;42.640;23.310;2023-08-30T10:20:46;93088.81;;;28.71;41.00
11682;BME280;5897;42.640;23.310;2023-08-30T10:23:14;93096.53;;;28.48;40.82
11682;BME280;5897;42.640;23.310;2023-08-30T10:25:44;93093.94;;;28.42;40.23
11682;BME280;5897;42.640;23.310;2023-08-30T10:28:12;93093.38;;;28.29;41.39
11682;BME280;5897;42.640;23.310;2023-08-30T10:30:39;93097.72;;;28.00;42.44
11682;BME280;5897;42.640;23.310;2023-08-30T10:33:11;93099.03;;;27.99;41.48
11682;BME280;5897;42.640;23.310;2023-08-30T10:35:48;93080.53;;;27.86;41.12
11682;BME280;5897;42.640;23.310;2023-08-30T10:38:25;93094.22;;;28.07;41.61
11682;BME280;5897;42.640;23.310;2023-08-30T10:40:52;93098.63;;;28.17;41.27
11682;BME280;5897;42.640;23.310;2023-08-30T10:43:28;93090.81;;;28.31;41.13
11682;BME280;5897;42.640;23.310;2023-08-30T10:46:02;93090.06;;;28.38;40.97
11682;BME280;5897;42.640;23.310;2023-08-30T10:48:36;93088.56;;;28.44;41.76
11682;BME280;5897;42.640;23.310;2023-08-30T10:51:20;93089.97;;;28.60;40.80
11682;BME280;5897;42.640;23.310;2023-08-30T10:53:55;93083.75;;;28.84;39.87
11682;BME280;5897;42.640;23.310;2023-08-30T10:56:27;93077.88;;;29.12;39.77
11682;BME280;5897;42.640;23.310;2023-08-30T10:58:54;93088.38;;;29.46;38.87
11682;BME280;5897;42.640;23.310;2023-08-30T11:01:21;93090.09;;;29.66;37.88
11682;BME280;5897;42.640;23.310;2023-08-30T11:03:49;93079.44;;;29.55;36.30
11682;BME280;5897;42.640;23.310;2023-08-30T11:06:18;93073.59;;;29.11;36.42
11682;BME280;5897;42.640;23.310;2023-08-30T11:08:48;93075.09;;;29.12;36.79
11682;BME280;5897;42.640;23.310;2023-08-30T11:11:15;93074.63;;;28.99;38.23
11682;BME280;5897;42.640;23.310;2023-08-30T11:13:42;93071.72;;;28.82;36.96
11682;BME280;5897;42.640;23.310;2023-08-30T11:16:08;93071.84;;;28.99;37.66
11682;BME280;5897;42.640;23.310;2023-08-30T11:18:37;93072.63;;;29.16;37.70
11682;BME280;5897;42.640;23.310;2023-08-30T11:21:05;93071.00;;;29.38;37.48
11682;BME280;5897;42.640;23.310;2023-08-30T11:23:34;93054.03;;;29.75;37.04
11682;BME280;5897;42.640;23.310;2023-08-30T11:26:01;93055.78;;;30.22;37.46
11682;BME280;5897;42.640;23.310;2023-08-30T11:28:30;93050.25;;;30.48;34.85
11682;BME280;5897;42.640;23.310;2023-08-30T11:30:57;93033.97;;;31.15;33.30
11682;BME280;5897;42.640;23.310;2023-08-30T11:33:24;93038.47;;;31.73;31.92
11682;BME280;5897;42.640;23.310;2023-08-30T11:35:51;93036.03;;;32.15;31.73
11682;BME280;5897;42.640;23.310;2023-08-30T11:38:19;93031.94;;;32.63;30.17
11682;BME280;5897;42.640;23.310;2023-08-30T11:40:49;93027.38;;;32.68;28.52
11682;BME280;5897;42.640;23.310;2023-08-30T11:43:16;93020.00;;;32.82;28.47
11682;BME280;5897;42.640;23.310;2023-08-30T11:45:43;93014.88;;;32.78;28.71
11682;BME280;5897;42.640;23.310;2023-08-30T11:48:09;93020.28;;;32.95;28.60
11682;BME280;5897;42.640;23.310;2023-08-30T11:50:37;93011.34;;;32.59;27.53
11682;BME280;5897;42.640;23.310;2023-08-30T11:53:05;93018.41;;;32.41;29.96
11682;BME280;5897;42.640;23.310;2023-08-30T11:55:32;93017.66;;;32.50;32.07
11682;BME280;5897;42.640;23.310;2023-08-30T11:58:01;93004.44;;;32.41;31.12
11682;BME280;5897;42.640;23.310;2023-08-30T12:00:29;93013.84;;;32.36;29.13
11682;BME280;5897;42.640;23.310;2023-08-30T12:02:59;93011.59;;;32.72;29.63
11682;BME280;5897;42.640;23.310;2023-08-30T12:05:25;93001.53;;;33.07;27.51
11682;BME280;5897;42.640;23.310;2023-08-30T12:07:52;93001.06;;;33.11;27.09
11682;BME280;5897;42.640;23.310;2023-08-30T12:10:19;93005.88;;;32.80;26.37
11682;BME280;5897;42.640;23.310;2023-08-30T12:12:46;92996.28;;;32.73;26.98
11682;BME280;5897;42.640;23.310;2023-08-30T12:15:14;93001.16;;;32.82;26.90
11682;BME280;5897;42.640;23.310;2023-08-30T12:17:42;92996.56;;;33.36;26.98
11682;BME280;5897;42.640;23.310;2023-08-30T12:20:18;93001.59;;;33.38;25.91
11682;BME280;5897;42.640;23.310;2023-08-30T12:22:49;93001.44;;;33.36;25.94
11682;BME280;5897;42.640;23.310;2023-08-30T12:25:17;93000.81;;;33.98;26.86
11682;BME280;5897;42.640;23.310;2023-08-30T12:27:44;92991.75;;;34.30;25.67
11682;BME280;5897;42.640;23.310;2023-08-30T12:30:12;92987.34;;;34.60;25.86
11682;BME280;5897;42.640;23.310;2023-08-30T12:32:40;92988.06;;;34.93;25.53
11682;BME280;5897;42.640;23.310;2023-08-30T12:35:07;92980.59;;;35.30;24.85
11682;BME280;5897;42.640;23.310;2023-08-30T12:37:35;92975.31;;;35.47;25.12
11682;BME280;5897;42.640;23.310;2023-08-30T12:40:01;92979.78;;;35.06;25.55
11682;BME280;5897;42.640;23.310;2023-08-30T12:42:28;92973.72;;;35.33;24.99
11682;BME280;5897;42.640;23.310;2023-08-30T12:44:55;92978.88;;;35.48;24.50
11682;BME280;5897;42.640;23.310;2023-08-30T12:47:22;92964.81;;;35.71;23.39
11682;BME280;5897;42.640;23.310;2023-08-30T12:49:50;92963.44;;;35.60;23.11
11682;BME280;5897;42.640;23.310;2023-08-30T12:52:17;92963.72;;;35.76;23.93
11682;BME280;5897;42.640;23.310;2023-08-30T12:54:44;92957.84;;;35.72;23.37
11682;BME280;5897;42.640;23.310;2023-08-30T12:57:11;92959.50;;;36.00;23.39
11682;BME280;5897;42.640;23.310;2023-08-30T12:59:37;92955.81;;;36.09;22.77
11682;BME280;5897;42.640;23.310;2023-08-30T13:02:04;92963.22;;;36.27;22.92
11682;BME280;5897;42.640;23.310;2023-08-30T13:04:31;92958.63;;;36.45;22.73